Time;durP1;ratioP1;P1;durP2;ratioP2;P2;SDS_P1;SDS_P2;PMS_P1;PMS_P2;Temp;Humidity;BMP_temperature;BMP_pressure;BME280_temperature;BME280_humidity;BME280_pressure;Samples;Min_cycle;Max_cycle;Signal;HPM_P1;HPM_P2
2024/03/19 00:02:10;;;;;;;20.80;10.45;;;12.90;99.90;;;13.35;97.80;101562.28;5093641;28;20047;-68
2024/03/19 00:04:37;;;;;;;17.77;9.73;;;13.00;99.90;;;13.44;97.42;101563.13;5093810;28;20051;-68
2024/03/19 00:07:05;;;;;;;16.17;9.52;;;13.10;99.90;;;13.51;97.05;101556.88;5093890;28;20118;-68
2024/03/19 00:09:32;;;;;;;17.70;9.77;;;13.20;99.90;;;13.59;96.85;101560.38;5094031;28;20507;-68
2024/03/19 00:12:00;;;;;;;16.48;9.25;;;13.30;99.90;;;13.65;96.61;101561.22;5093515;28;20046;-68
2024/03/19 00:14:27;;;;;;;16.70;9.52;;;13.30;99.90;;;13.69;96.48;101555.00;5093438;28;20134;-68
2024/03/19 00:16:56;;;;;;;19.23;9.98;;;13.30;99.90;;;13.63;96.40;101550.59;5076645;28;20484;-69
2024/03/19 00:19:24;;;;;;;15.40;9.30;;;13.30;99.90;;;13.71;96.11;101550.56;5093363;28;20044;-68
2024/03/19 00:21:51;;;;;;;13.43;8.73;;;13.40;99.90;;;13.72;96.35;101544.38;5093413;28;20043;-68
2024/03/19 00:24:19;;;;;;;17.05;9.77;;;13.40;99.90;;;13.80;96.28;101554.03;5093406;28;20047;-67
2024/03/19 00:26:46;;;;;;;14.68;8.70;;;13.40;99.90;;;13.84;96.16;101547.81;5093521;28;20047;-68
2024/03/19 00:29:14;;;;;;;18.40;10.07;;;13.50;99.90;;;13.89;95.46;101539.81;5093223;28;20036;-68
2024/03/19 00:31:41;;;;;;;17.15;9.23;;;13.50;99.90;;;13.80;95.53;101513.28;5093211;28;20428;-68
2024/03/19 00:34:10;;;;;;;15.85;8.27;;;13.60;99.90;;;13.95;95.33;101551.31;5093605;28;20043;-67
2024/03/19 00:36:37;;;;;;;14.98;9.00;;;13.60;99.90;;;13.65;95.17;101498.31;5093072;28;20088;-68
2024/03/19 00:39:10;;;;;;;17.35;9.38;;;13.60;99.90;;;13.96;95.36;101546.84;5093164;28;20657;-68
2024/03/19 00:41:37;;;;;;;15.48;8.80;;;13.60;99.90;;;13.97;95.34;101549.50;5093064;28;20040;-68
2024/03/19 00:44:05;;;;;;;13.95;8.90;;;13.60;99.90;;;13.96;95.16;101545.06;5093636;28;20171;-68
2024/03/19 00:46:32;;;;;;;13.18;8.68;;;13.60;99.90;;;13.97;94.91;101546.84;5093281;28;20035;-68
2024/03/19 00:49:01;;;;;;;15.48;8.43;;;13.60;99.90;;;13.99;95.08;101545.06;5093363;28;20097;-68
2024/03/19 00:51:30;;;;;;;15.10;9.02;;;13.60;99.90;;;13.94;95.03;101551.28;5092766;28;20138;-67
2024/03/19 00:53:57;;;;;;;12.18;8.82;;;13.60;99.90;;;14.04;94.71;101537.91;5092843;28;20048;-68
2024/03/19 00:56:24;;;;;;;12.00;8.50;;;13.70;99.90;;;14.05;94.65;101536.16;5093326;28;20488;-68
2024/03/19 00:58:52;;;;;;;14.10;8.40;;;13.70;99.90;;;13.99;94.79;101528.22;5093206;28;20040;-68
2024/03/19 01:01:19;;;;;;;14.20;8.25;;;13.60;99.90;;;14.03;94.46;101529.97;5093103;28;20042;-68
2024/03/19 01:03:47;;;;;;;11.50;7.70;;;13.60;99.90;;;14.09;94.32;101533.44;5093005;28;20523;-68
2024/03/19 01:06:14;;;;;;;10.63;7.85;;;13.70;99.90;;;14.12;94.44;101529.88;5092937;28;20036;-68
2024/03/19 01:08:43;;;;;;;12.60;7.57;;;13.70;99.90;;;14.15;94.18;101530.72;5092769;28;20035;-68
2024/03/19 01:11:11;;;;;;;12.32;8.32;;;13.70;99.90;;;14.15;94.34;101536.03;5092889;28;20047;-68
2024/03/19 01:13:39;;;;;;;12.77;7.55;;;13.80;99.90;;;14.10;94.46;101531.66;5092787;28;20040;-68
2024/03/19 01:16:07;;;;;;;13.85;7.72;;;13.80;99.90;;;14.14;94.56;101528.09;5093013;28;20412;-68
2024/03/19 01:18:35;;;;;;;11.60;7.32;;;13.70;99.90;;;14.13;94.22;101536.97;5092683;28;20500;-68
2024/03/19 01:21:03;;;;;;;12.15;7.45;;;13.80;99.90;;;14.06;94.54;101532.56;5092933;28;20081;-68
2024/03/19 01:23:30;;;;;;;11.73;7.65;;;13.70;99.90;;;13.91;94.92;101514.97;5092717;28;20039;-68
2024/03/19 01:25:59;;;;;;;12.98;7.18;;;13.70;99.90;;;14.05;95.19;101536.16;5092745;28;20036;-68
2024/03/19 01:28:26;;;;;;;11.50;6.82;;;13.70;99.90;;;14.00;95.10;101520.22;5092673;28;20035;-68
2024/03/19 01:30:53;;;;;;;11.82;7.10;;;13.60;99.90;;;13.95;95.52;101537.09;5092648;28;20047;-68
2024/03/19 01:33:21;;;;;;;9.90;6.47;;;13.60;99.90;;;13.96;95.62;101533.53;5092590;28;20067;-68
2024/03/19 01:35:47;;;;;;;13.48;7.45;;;13.60;99.90;;;13.27;95.35;101412.66;5075796;28;20472;-68
2024/03/19 01:38:15;;;;;;;11.63;7.25;;;13.60;99.90;;;13.88;95.26;101540.72;5092542;28;20054;-68
2024/03/19 01:40:47;;;;;;;13.45;7.68;;;13.60;99.90;;;13.81;95.64;101531.00;5075808;28;20105;-68
2024/03/19 01:43:16;;;;;;;12.52;8.15;;;13.50;99.90;;;13.84;95.63;101538.97;5092549;28;20438;-68
2024/03/19 01:45:44;;;;;;;11.75;7.60;;;13.50;99.90;;;13.84;95.46;101528.34;5092779;28;20039;-68
2024/03/19 01:48:11;;;;;;;12.13;7.43;;;13.50;99.90;;;13.80;95.07;101534.56;5092474;28;20043;-68
2024/03/19 01:50:39;;;;;;;12.25;7.35;;;13.40;99.90;;;13.81;95.18;101531.00;5092669;28;20044;-68
2024/03/19 01:53:07;;;;;;;12.13;7.40;;;13.40;99.90;;;13.72;95.17;101537.28;5089122;28;20044;-67
2024/03/19 01:55:34;;;;;;;11.48;6.80;;;13.40;99.90;;;13.72;94.89;101533.72;5088973;28;20044;-68
2024/03/19 01:58:02;;;;;;;12.50;6.65;;;13.40;99.90;;;13.72;95.03;101533.72;5089077;28;20041;-68
2024/03/19 02:00:30;;;;;;;14.15;7.30;;;13.40;99.90;;;13.64;94.83;101544.41;5090934;28;20048;-68
2024/03/19 02:02:58;;;;;;;13.52;7.22;;;13.30;99.90;;;13.62;95.16;101538.22;5092584;28;20036;-68
2024/03/19 02:05:25;;;;;;;11.27;7.18;;;13.30;99.90;;;13.58;95.08;101529.41;5092441;28;20040;-68
2024/03/19 02:07:52;;;;;;;12.10;7.65;;;13.30;99.90;;;13.57;95.11;101530.28;5092458;28;20036;-68
2024/03/19 02:10:21;;;;;;;12.30;6.97;;;13.20;99.90;;;13.53;95.34;101530.28;5092471;28;20043;-68
2024/03/19 02:12:48;;;;;;;13.10;6.63;;;13.20;99.90;;;13.49;95.21;101534.75;5092377;28;20040;-68
2024/03/19 02:15:16;;;;;;;17.90;6.55;;;13.20;99.90;;;13.47;95.36;101533.88;5092280;28;20058;-68
2024/03/19 02:17:44;;;;;;;12.13;6.40;;;13.10;99.90;;;13.47;95.75;101535.66;5092466;28;20481;-68
2024/03/19 02:20:15;;;;;;;14.15;6.45;;;13.10;99.90;;;13.39;95.83;101519.72;5092395;28;20040;-68
2024/03/19 02:22:43;;;;;;;12.35;7.40;;;13.10;99.90;;;13.40;96.45;101520.63;5092504;28;20043;-70
2024/03/19 02:25:10;;;;;;;10.68;6.90;;;13.10;99.90;;;13.40;96.56;101520.63;5092360;28;20048;-68
2024/03/19 02:27:38;;;;;;;13.07;6.53;;;13.10;99.90;;;13.44;96.47;101514.41;5092301;28;20047;-68
2024/03/19 02:30:08;;;;;;;14.60;6.95;;;13.10;99.90;;;13.44;96.77;101511.75;5092359;28;20090;-68
2024/03/19 02:32:35;;;;;;;15.68;7.57;;;13.10;99.90;;;13.43;96.69;101510.84;5092318;28;20089;-68
2024/03/19 02:35:03;;;;;;;13.35;6.35;;;13.10;99.90;;;13.40;96.98;101512.66;5092070;28;20036;-68
2024/03/19 02:37:30;;;;;;;12.20;6.60;;;13.10;99.90;;;13.25;97.02;101483.50;5092154;28;20036;-68
2024/03/19 02:40:00;;;;;;;12.30;6.88;;;13.00;99.90;;;13.45;96.66;101503.75;5091947;28;20039;-68
2024/03/19 02:42:27;;;;;;;14.75;6.95;;;13.10;99.90;;;13.40;96.62;101504.69;5075226;28;20438;-68
2024/03/19 02:44:55;;;;;;;13.88;6.95;;;13.10;99.90;;;13.37;96.47;101499.41;5092059;28;20040;-68
2024/03/19 02:47:22;;;;;;;10.88;6.00;;;13.00;99.90;;;13.33;96.48;101492.34;5091747;28;20044;-68
2024/03/19 02:49:49;;;;;;;13.25;6.35;;;13.00;99.90;;;12.61;96.66;101393.53;5091825;28;20485;-67
2024/03/19 02:52:17;;;;;;;10.88;6.78;;;12.90;99.90;;;13.23;96.38;101502.13;5075458;28;20051;-68
2024/03/19 02:54:44;;;;;;;13.20;6.95;;;12.90;99.90;;;13.18;96.30;101493.28;5095107;28;20042;-68
2024/03/19 02:57:13;;;;;;;10.77;6.30;;;12.90;99.90;;;13.17;96.41;101493.28;5094872;28;20081;-68
2024/03/19 02:59:40;;;;;;;9.40;6.38;;;12.90;99.90;;;13.22;96.31;101496.81;5095437;28;20035;-68
2024/03/19 03:02:07;;;;;;;13.23;6.75;;;12.80;99.90;;;13.21;95.96;101503.91;5078204;28;20043;-67
2024/03/19 03:04:35;;;;;;;12.93;7.15;;;12.90;99.90;;;13.24;96.06;101505.69;5094891;28;20438;-68
2024/03/19 03:07:02;;;;;;;10.73;6.40;;;12.90;99.90;;;13.24;95.92;101506.53;5094831;28;20048;-68
2024/03/19 03:09:29;;;;;;;10.40;5.97;;;12.90;99.90;;;13.28;95.85;101504.75;5094776;28;20040;-67
2024/03/19 03:11:57;;;;;;;11.60;6.88;;;12.90;99.90;;;13.26;95.94;101496.78;5094765;28;20036;-68
2024/03/19 03:14:26;;;;;;;11.75;6.75;;;12.90;99.90;;;13.35;95.87;101498.53;5094682;28;20043;-68
2024/03/19 03:16:53;;;;;;;13.55;7.32;;;13.00;99.90;;;13.38;96.31;101503.81;5077914;28;20093;-67
2024/03/19 03:19:20;;;;;;;9.85;6.40;;;13.00;99.90;;;13.28;96.26;101492.34;5094869;28;20054;-68
2024/03/19 03:21:48;;;;;;;14.70;7.15;;;13.00;99.90;;;13.44;96.21;101507.31;5094571;28;20067;-68
2024/03/19 03:24:15;;;;;;;11.40;6.55;;;13.10;99.90;;;13.47;96.33;101512.59;5094728;28;20047;-68
2024/03/19 03:26:44;;;;;;;13.00;6.82;;;13.10;99.90;;;13.51;96.17;101521.47;5077823;28;20047;-68
2024/03/19 03:29:11;;;;;;;12.20;6.43;;;13.10;99.90;;;13.50;96.04;101515.25;5094943;28;20039;-68
2024/03/19 03:31:40;;;;;;;10.43;6.00;;;13.20;99.90;;;13.56;95.96;101517.88;5094362;28;20256;-68
2024/03/19 03:34:08;;;;;;;11.45;6.60;;;13.20;99.90;;;13.57;95.92;101516.97;5077896;28;20718;-68
2024/03/19 03:36:34;;;;;;;10.10;7.25;;;13.20;99.90;;;13.62;96.10;101521.38;5094100;28;20039;-68
2024/03/19 03:39:04;;;;;;;10.88;6.85;;;13.20;99.90;;;13.63;95.82;101523.16;5094738;28;20039;-68
2024/03/19 03:41:32;;;;;;;11.95;7.35;;;13.30;99.90;;;13.72;95.63;101523.09;5111084;28;20080;-68
2024/03/19 03:44:00;;;;;;;9.38;6.90;;;13.40;99.90;;;13.72;95.19;101523.09;5094227;28;20050;-68
2024/03/19 03:46:27;;;;;;;9.65;7.68;;;13.40;99.90;;;13.72;95.43;101526.66;5094252;28;20039;-67
2024/03/19 03:48:56;;;;;;;11.57;7.63;;;13.40;99.90;;;13.71;95.50;101523.97;5094006;28;20042;-68
2024/03/19 03:51:23;;;;;;;12.65;7.32;;;13.40;99.90;;;13.75;95.50;101529.28;5094446;28;20044;-68
2024/03/19 03:53:51;;;;;;;12.73;7.32;;;13.40;99.90;;;13.77;95.46;101524.81;5093949;28;20686;-67
2024/03/19 03:56:18;;;;;;;14.65;7.25;;;13.40;99.90;;;13.74;95.48;101523.97;5093929;28;20039;-68
2024/03/19 03:58:45;;;;;;;9.82;7.70;;;13.40;99.90;;;13.74;95.57;101523.97;5093818;28;20438;-68
2024/03/19 04:01:13;;;;;;;12.90;7.75;;;13.40;99.90;;;13.75;95.39;101520.41;5093719;28;20043;-68
2024/03/19 04:03:41;;;;;;;13.52;7.80;;;13.40;99.90;;;13.74;95.54;101530.19;5093649;28;20039;-68
2024/03/19 04:06:08;;;;;;;17.27;8.68;;;13.40;99.90;;;13.75;95.69;101539.00;5093672;28;20118;-68
2024/03/19 04:08:35;;;;;;;11.05;8.15;;;13.40;99.90;;;13.77;95.86;101530.16;5093658;28;20043;-68
2024/03/19 04:11:03;;;;;;;10.90;7.68;;;13.40;99.90;;;13.77;95.78;101532.81;5093553;28;20116;-68
2024/03/19 04:13:30;;;;;;;13.27;8.40;;;13.40;99.90;;;13.75;95.83;101539.00;5093506;28;20397;-68
2024/03/19 04:15:58;;;;;;;10.60;7.72;;;13.40;99.90;;;13.78;95.89;101536.34;5093731;28;20134;-68
2024/03/19 04:18:25;;;;;;;11.25;7.72;;;13.40;99.90;;;13.74;95.62;101530.19;5076683;28;20401;-67
2024/03/19 04:20:52;;;;;;;9.98;7.10;;;13.40;99.90;;;13.77;95.70;101542.53;5093732;28;20140;-68
2024/03/19 04:23:21;;;;;;;10.85;7.43;;;13.40;99.90;;;13.75;95.67;101542.56;5092985;28;20035;-68
2024/03/19 04:25:48;;;;;;;14.75;8.13;;;13.40;99.90;;;13.76;95.62;101540.81;5093851;28;20047;-68
2024/03/19 04:28:16;;;;;;;11.82;7.45;;;13.40;99.90;;;13.68;95.42;101543.50;5093216;28;20031;-68
2024/03/19 04:30:43;;;;;;;12.05;7.30;;;13.30;99.90;;;13.58;95.90;101545.34;5093764;28;20051;-67
2024/03/19 04:33:11;;;;;;;12.52;7.47;;;13.30;99.90;;;13.50;96.01;101543.59;5093228;28;20569;-68
2024/03/19 04:35:38;;;;;;;15.35;8.02;;;13.20;99.90;;;13.54;96.08;101551.56;5076490;28;20052;-68
2024/03/19 04:38:05;;;;;;;11.25;7.63;;;13.20;99.90;;;13.58;95.94;101542.69;5093338;28;20051;-68
2024/03/19 04:40:34;;;;;;;11.57;7.78;;;13.20;99.90;;;13.47;95.99;101538.31;5076054;28;20056;-68
2024/03/19 04:43:01;;;;;;;11.63;7.40;;;13.20;99.90;;;13.48;96.34;101548.94;5093124;28;20036;-67
2024/03/19 04:45:29;;;;;;;11.52;7.35;;;13.10;99.90;;;13.49;96.35;101541.84;5093082;28;20043;-67
2024/03/19 04:47:57;;;;;;;13.40;7.78;;;13.10;99.90;;;13.50;96.38;101541.84;5093141;28;20040;-68
2024/03/19 04:50:24;;;;;;;12.82;7.90;;;13.20;99.90;;;13.48;96.04;101542.72;5093050;28;20088;-68
2024/03/19 04:52:52;;;;;;;14.18;7.68;;;13.20;99.90;;;13.43;96.18;101548.06;5092780;28;20058;-68
2024/03/19 04:55:19;;;;;;;17.27;8.10;;;13.10;99.90;;;13.43;96.22;101537.44;5092902;28;20043;-68
2024/03/19 04:57:48;;;;;;;15.88;7.95;;;13.10;99.90;;;13.22;96.96;101540.19;5093366;28;20089;-67
2024/03/19 05:00:17;;;;;;;14.13;8.07;;;13.00;99.90;;;13.30;97.25;101543.69;5093449;28;20055;-68
2024/03/19 05:02:45;;;;;;;13.68;7.82;;;13.00;99.90;;;13.29;97.45;101549.94;5092990;28;20043;-68
2024/03/19 05:05:12;;;;;;;13.45;8.15;;;13.00;99.90;;;13.22;97.80;101553.47;5092878;28;20036;-68
2024/03/19 05:07:40;;;;;;;12.60;7.53;;;13.00;99.90;;;13.24;97.80;101549.03;5093315;28;20047;-67
2024/03/19 05:10:09;;;;;;;14.07;8.15;;;12.90;99.90;;;13.12;98.06;101525.22;5092959;28;20036;-68
2024/03/19 05:12:36;;;;;;;16.08;8.05;;;12.90;99.90;;;13.28;97.84;101540.16;5092768;28;20066;-68
2024/03/19 05:15:06;;;;;;;12.32;7.07;;;13.00;99.90;;;13.35;97.51;101541.94;5093109;28;20093;-67
2024/03/19 05:17:34;;;;;;;13.07;7.38;;;13.00;99.90;;;12.64;97.28;101427.09;5076010;28;20139;-68
2024/03/19 05:20:01;;;;;;;12.77;7.85;;;13.00;99.90;;;13.39;97.19;101538.34;5075965;28;20393;-67
2024/03/19 05:22:30;;;;;;;16.13;7.40;;;13.10;99.90;;;13.48;96.77;101540.06;5092697;28;20118;-67
2024/03/19 05:24:57;;;;;;;11.13;7.70;;;13.10;99.90;;;13.51;96.25;101540.94;5075964;28;20056;-68
2024/03/19 05:27:25;;;;;;;13.45;8.02;;;13.20;99.90;;;13.55;96.20;101541.78;5092685;28;20066;-68
2024/03/19 05:29:52;;;;;;;17.25;7.38;;;13.20;99.90;;;13.62;95.87;101551.53;5092958;28;20084;-68
2024/03/19 05:32:21;;;;;;;13.27;8.60;;;13.30;99.90;;;13.74;95.52;101543.47;5092876;28;20043;-68
2024/03/19 05:34:48;;;;;;;14.40;8.00;;;13.40;99.90;;;13.81;95.21;101549.63;5093615;28;20051;-68
2024/03/19 05:37:17;;;;;;;13.27;7.22;;;13.50;99.90;;;13.87;94.40;101541.59;5096420;28;20046;-68
2024/03/19 05:39:44;;;;;;;11.88;7.40;;;13.50;99.90;;;13.89;94.15;101545.13;5096445;28;20039;-68
2024/03/19 05:42:12;;;;;;;15.73;7.10;;;13.60;99.90;;;13.93;93.75;101547.78;5096712;28;20077;-68
2024/03/19 05:44:39;;;;;;;17.48;7.80;;;13.60;99.90;;;13.96;93.68;101544.19;5096674;28;20100;-68
2024/03/19 05:47:06;;;;;;;15.38;8.35;;;13.60;99.90;;;13.91;93.34;101546.91;5096367;28;20069;-68
2024/03/19 05:49:35;;;;;;;14.82;7.57;;;13.60;99.90;;;13.98;93.33;101559.25;5079531;28;20100;-68
2024/03/19 05:52:02;;;;;;;12.52;7.93;;;13.60;99.90;;;14.01;93.32;101558.34;5096281;28;20035;-68
2024/03/19 05:54:30;;;;;;;10.70;7.18;;;13.60;99.90;;;14.01;93.05;101553.91;5096023;28;20047;-67
2024/03/19 05:56:57;;;;;;;15.45;7.88;;;13.70;99.90;;;14.00;92.91;101560.13;5096360;28;20039;-67
2024/03/19 05:59:25;;;;;;;13.75;7.60;;;13.70;99.90;;;13.96;93.15;101561.03;5095946;28;20093;-68
2024/03/19 06:01:52;;;;;;;15.25;8.15;;;13.70;99.90;;;14.00;92.87;101567.22;5095810;28;20048;-68
2024/03/19 06:04:19;;;;;;;12.88;7.47;;;13.70;99.90;;;14.01;92.86;101558.34;5096057;28;20032;-68
2024/03/19 06:06:49;;;;;;;17.58;8.13;;;13.70;99.90;;;14.00;92.69;101564.53;5096612;28;20062;-69
2024/03/19 06:09:16;;;;;;;14.07;8.07;;;13.70;99.90;;;14.05;92.42;101563.63;5095872;28;20485;-69
2024/03/19 06:11:44;;;;;;;14.43;8.15;;;13.70;99.90;;;14.02;92.52;101560.09;5095924;28;20417;-68
2024/03/19 06:14:12;;;;;;;15.40;7.25;;;13.70;99.90;;;14.05;92.35;101560.94;5095873;28;20047;-68
2024/03/19 06:16:39;;;;;;;15.15;7.90;;;13.70;99.90;;;14.08;92.39;101565.38;5095826;28;20049;-68
2024/03/19 06:19:07;;;;;;;14.07;8.13;;;13.70;99.90;;;14.10;92.54;101569.81;5096139;28;20063;-69
2024/03/19 06:21:34;;;;;;;13.98;8.07;;;13.80;99.90;;;14.16;92.03;101571.53;5095644;28;20670;-68
2024/03/19 06:24:04;;;;;;;15.10;8.00;;;13.80;99.90;;;14.21;91.88;101567.03;5095614;28;20040;-68
2024/03/19 06:26:33;;;;;;;11.50;7.78;;;13.90;99.90;;;14.22;91.64;101575.03;5095476;28;20073;-68
2024/03/19 06:29:00;;;;;;;11.90;8.07;;;13.90;99.90;;;14.28;91.36;101567.03;5095424;28;20036;-69
2024/03/19 06:31:28;;;;;;;12.85;7.65;;;13.90;99.90;;;14.28;91.44;101571.47;5095858;28;20039;-68
2024/03/19 06:33:55;;;;;;;14.38;8.38;;;14.00;99.90;;;14.21;91.15;101572.38;5078580;28;20112;-68
2024/03/19 06:36:22;;;;;;;15.32;7.72;;;13.90;99.90;;;14.28;91.45;101569.69;5095280;28;20036;-69
2024/03/19 06:38:50;;;;;;;14.57;8.80;;;13.90;99.90;;;13.55;91.64;101447.00;5095212;28;20036;-68
2024/03/19 06:41:19;;;;;;;13.32;7.93;;;13.90;99.90;;;14.22;92.13;101567.06;5094635;28;20043;-68
2024/03/19 06:43:47;;;;;;;12.25;7.60;;;13.90;99.90;;;14.21;92.14;101577.69;5095224;28;20043;-69
2024/03/19 06:46:14;;;;;;;13.23;8.07;;;13.90;99.90;;;14.14;92.64;101576.88;5094811;28;20039;-69
2024/03/19 06:48:43;;;;;;;12.52;7.70;;;13.90;99.90;;;14.23;92.65;101575.91;5095134;28;20043;-69
2024/03/19 06:51:10;;;;;;;13.98;7.68;;;13.90;99.90;;;14.21;92.45;101578.56;5095015;28;20413;-69
2024/03/19 06:53:38;;;;;;;14.32;7.07;;;13.90;99.90;;;14.17;92.36;101575.94;5094994;28;20044;-69
2024/03/19 06:56:09;;;;;;;14.95;7.60;;;13.90;99.90;;;14.16;92.34;101577.75;5094934;28;20388;-69
2024/03/19 06:58:38;;;;;;;9.73;7.53;;;13.90;99.90;;;14.08;92.68;101571.59;5094964;28;20411;-69
2024/03/19 07:01:05;;;;;;;13.80;7.72;;;13.80;99.90;;;14.09;93.49;101568.03;5094763;28;20036;-69
2024/03/19 07:03:33;;;;;;;16.55;7.65;;;13.70;99.90;;;14.02;93.65;101576.06;5095254;28;20040;-69
2024/03/19 07:06:01;;;;;;;11.05;7.03;;;13.70;99.90;;;13.99;93.87;101574.31;5094739;28;20036;-69
2024/03/19 07:08:29;;;;;;;16.20;7.78;;;13.70;99.90;;;14.01;93.86;101566.34;5095141;28;20035;-69
2024/03/19 07:10:57;;;;;;;14.20;7.18;;;13.70;99.90;;;14.04;93.71;101574.28;5094815;28;20064;-69
2024/03/19 07:13:25;;;;;;;12.18;6.95;;;13.70;99.90;;;13.97;93.90;101577.88;5094517;28;20456;-69
2024/03/19 07:15:54;;;;;;;14.85;7.32;;;13.70;99.90;;;13.90;94.29;101582.34;5077489;28;20044;-69
2024/03/19 07:18:22;;;;;;;14.10;7.32;;;13.60;99.90;;;13.89;93.82;101587.69;5094261;28;20036;-69
2024/03/19 07:20:51;;;;;;;16.38;7.10;;;13.60;99.90;;;13.94;93.99;101583.19;5094387;28;20405;-68
2024/03/19 07:23:18;;;;;;;18.70;7.45;;;13.60;99.90;;;13.95;93.75;101587.66;5094292;28;20039;-69
2024/03/19 07:25:46;;;;;;;15.48;6.18;;;13.60;99.90;;;13.94;93.79;101576.13;5094551;28;20382;-68
2024/03/19 07:28:13;;;;;;;17.40;7.03;;;13.60;99.90;;;13.98;93.65;101582.28;5077446;28;20047;-70
2024/03/19 07:30:40;;;;;;;18.10;6.60;;;13.60;99.90;;;14.03;93.59;101584.03;5094197;28;20492;-69
2024/03/19 07:33:09;;;;;;;13.73;6.32;;;13.70;99.90;;;14.01;93.64;101587.59;5094089;28;20035;-70
2024/03/19 07:35:37;;;;;;;13.43;5.95;;;13.70;99.90;;;13.98;92.92;101584.94;5094101;28;20043;-70
2024/03/19 07:38:07;;;;;;;15.70;6.43;;;13.70;99.90;;;13.99;93.26;101590.28;5094204;28;20059;-70
2024/03/19 07:40:35;;;;;;;11.25;5.78;;;13.70;99.90;;;14.04;93.16;101584.91;5094269;28;20055;-69
2024/03/19 07:43:03;;;;;;;8.98;5.80;;;13.70;99.90;;;14.02;92.79;101587.59;5093762;28;20081;-69
2024/03/19 07:45:31;;;;;;;13.23;6.22;;;13.70;99.90;;;13.92;92.75;101585.88;5094194;28;20476;-69
2024/03/19 07:48:03;;;;;;;10.23;6.13;;;13.70;99.90;;;13.99;93.22;101592.06;5093879;28;20093;-71
2024/03/19 07:50:34;;;;;;;12.00;6.03;;;13.70;99.90;;;13.93;93.01;101571.72;5093892;28;20576;-71
2024/03/19 07:53:02;;;;;;;17.55;5.90;;;13.70;99.90;;;13.99;92.89;101587.63;5093621;28;20499;-70
2024/03/19 07:55:30;;;;;;;15.65;6.13;;;13.70;99.90;;;14.03;92.82;101593.81;5093999;28;20377;-71
2024/03/19 07:57:57;;;;;;;10.88;6.22;;;13.70;99.90;;;14.09;92.58;101583.13;5092960;28;20040;-70
2024/03/19 08:00:25;;;;;;;17.02;6.15;;;13.80;99.90;;;14.04;92.36;101574.28;5094193;28;20039;-68
2024/03/19 08:02:53;;;;;;;18.63;6.03;;;13.80;99.90;;;14.15;92.37;101591.06;5093833;28;20061;-70
2024/03/19 08:05:21;;;;;;;11.43;5.50;;;13.80;99.90;;;14.10;92.48;101590.19;5076901;28;20043;-70
2024/03/19 08:07:49;;;;;;;11.52;5.65;;;13.80;99.90;;;14.16;92.13;101599.03;5093790;28;20043;-69
2024/03/19 08:10:17;;;;;;;12.60;5.55;;;13.90;99.90;;;14.11;91.84;101589.31;5093452;28;20036;-70
2024/03/19 08:12:45;;;;;;;11.25;5.93;;;13.80;99.90;;;14.20;91.59;101595.44;5093978;28;20088;-70
2024/03/19 08:15:13;;;;;;;14.65;6.28;;;13.90;99.90;;;13.90;91.49;101592.13;5076685;28;20104;-70
2024/03/19 08:17:41;;;;;;;13.75;6.40;;;13.80;99.90;;;13.96;92.22;101592.94;5093591;28;20039;-70
2024/03/19 08:20:12;;;;;;;13.88;6.03;;;13.70;99.90;;;13.98;92.04;101601.81;5076425;28;20134;-70
2024/03/19 08:22:41;;;;;;;14.32;6.68;;;13.70;99.90;;;14.05;91.56;101615.97;5092997;28;20043;-70
2024/03/19 08:25:11;;;;;;;10.07;6.65;;;13.70;99.90;;;14.11;91.99;101610.59;5093711;28;20035;-69
2024/03/19 08:27:38;;;;;;;15.80;6.50;;;13.80;99.90;;;14.21;91.68;101606.94;5093801;28;20039;-69
2024/03/19 08:30:08;;;;;;;13.35;7.03;;;13.90;99.90;;;14.18;91.59;101591.03;5093449;28;20047;-69
2024/03/19 08:32:37;;;;;;;15.95;7.25;;;13.90;99.90;;;14.24;91.58;101604.28;5093118;28;20092;-69
2024/03/19 08:35:08;;;;;;;16.08;7.15;;;14.00;99.90;;;14.17;91.22;101613.19;5093345;28;20093;-68
2024/03/19 08:37:37;;;;;;;14.75;7.07;;;13.90;99.90;;;14.07;91.37;101583.09;5093134;28;20040;-68
2024/03/19 08:40:06;;;;;;;11.35;7.68;;;13.90;99.90;;;14.28;91.05;101603.41;5093122;28;20044;-68
2024/03/19 08:42:35;;;;;;;12.40;6.80;;;14.00;99.90;;;14.29;91.24;101611.38;5092985;28;20042;-67
2024/03/19 08:45:04;;;;;;;15.75;7.78;;;14.00;99.90;;;14.32;91.23;101607.81;5093001;28;20198;-68
2024/03/19 08:47:31;;;;;;;18.50;7.88;;;14.00;99.90;;;14.40;90.93;101619.28;5093247;28;20035;-69
2024/03/19 08:49:59;;;;;;;11.70;7.40;;;14.10;99.90;;;14.48;91.13;101611.22;5093363;28;20108;-68
2024/03/19 08:52:26;;;;;;;15.93;8.40;;;14.10;99.90;;;14.57;91.57;101609.38;5092659;28;20607;-68
2024/03/19 08:54:54;;;;;;;15.48;8.32;;;14.20;99.90;;;14.61;91.04;101615.56;5093046;28;20039;-68
2024/03/19 08:57:21;;;;;;;15.15;8.13;;;14.30;99.90;;;14.64;91.39;101621.72;5092885;28;20126;-68
2024/03/19 08:59:51;;;;;;;13.23;7.90;;;14.30;99.90;;;14.64;90.73;101618.16;5093194;28;20416;-68
2024/03/19 09:02:18;;;;;;;17.70;8.63;;;14.30;99.90;;;13.93;90.29;101502.56;5075835;28;20055;-68
2024/03/19 09:04:46;;;;;;;14.30;8.68;;;14.40;99.90;;;14.73;90.02;101626.94;5092903;28;20209;-68
2024/03/19 09:07:13;;;;;;;10.73;8.43;;;14.40;99.90;;;14.83;90.53;101633.97;5093132;28;20039;-68
2024/03/19 09:09:44;;;;;;;14.68;8.63;;;14.50;99.90;;;14.89;89.93;101635.69;5095046;28;20043;-68
2024/03/19 09:12:12;;;;;;;15.55;8.63;;;14.50;99.90;;;14.92;89.59;101623.25;5096799;28;20047;-68
2024/03/19 09:14:40;;;;;;;13.13;8.10;;;14.60;99.90;;;15.04;89.06;101623.09;5096910;28;20492;-68
2024/03/19 09:17:08;;;;;;;18.63;8.52;;;14.70;99.90;;;15.04;88.90;101617.75;5096946;28;20047;-68
2024/03/19 09:19:39;;;;;;;14.88;8.75;;;14.80;99.90;;;15.12;88.97;101620.34;5096767;28;20043;-68
2024/03/19 09:22:07;;;;;;;16.13;8.90;;;14.80;99.90;;;15.11;88.81;101619.47;5097115;28;20116;-68
2024/03/19 09:24:34;;;;;;;20.52;9.15;;;14.80;99.90;;;15.20;88.49;101626.47;5080026;28;20749;-68
2024/03/19 09:27:03;;;;;;;15.10;9.25;;;14.90;99.90;;;15.20;88.67;101622.03;5096665;28;20525;-68
2024/03/19 09:29:31;;;;;;;12.88;8.75;;;14.90;99.90;;;15.27;87.85;101626.38;5097136;28;20534;-68
2024/03/19 09:31:58;;;;;;;15.55;8.40;;;15.00;99.90;;;15.24;88.09;101620.22;5096450;28;20405;-68
2024/03/19 09:34:27;;;;;;;16.80;8.80;;;15.00;99.90;;;15.35;87.33;101612.97;5096684;28;20044;-68
2024/03/19 09:36:55;;;;;;;17.27;9.02;;;15.00;99.90;;;15.49;87.01;101615.50;5079746;28;20067;-68
2024/03/19 09:39:23;;;;;;;15.35;8.60;;;15.20;99.90;;;15.68;87.37;101614.38;5096350;28;20040;-69
2024/03/19 09:42:03;;;;;;;17.35;8.02;;;15.40;99.90;;;15.72;85.42;101613.41;5096598;28;20035;-68
2024/03/19 09:44:31;;;;;;;24.10;8.68;;;15.50;99.90;;;15.96;85.65;101613.97;5079670;28;20553;-68
2024/03/19 09:47:00;;;;;;;13.98;8.60;;;15.70;99.90;;;16.25;85.23;101625.09;5096332;28;20047;-68
2024/03/19 09:49:32;;;;;;;15.32;8.73;;;15.90;99.90;;;16.48;84.70;101616.75;5096276;28;20634;-68
2024/03/19 09:52:03;;;;;;;13.65;7.68;;;16.10;99.90;;;16.78;82.85;101624.22;5079371;28;20052;-69
2024/03/19 09:54:31;;;;;;;16.98;8.15;;;16.50;99.90;;;16.99;81.30;101623.81;5095979;28;20593;-68
2024/03/19 09:57:03;;;;;;;11.73;7.40;;;16.70;99.90;;;17.10;80.24;101615.63;5096254;28;20096;-68
2024/03/19 09:59:32;;;;;;;13.60;7.50;;;16.90;99.90;;;17.13;79.87;101629.81;5096400;28;20036;-68
2024/03/19 10:01:59;;;;;;;14.05;7.10;;;17.00;99.90;;;17.30;78.82;101625.94;5095971;28;20085;-68
2024/03/19 10:04:28;;;;;;;16.35;6.72;;;17.00;99.90;;;17.56;78.00;101631.66;5096191;28;20043;-68
2024/03/19 10:06:56;;;;;;;15.68;6.40;;;17.20;99.90;;;17.62;76.49;101627.06;5096497;28;20088;-68
2024/03/19 10:09:32;;;;;;;12.65;6.38;;;17.40;99.90;;;17.66;75.27;101639.47;5095882;28;20035;-68